^^
Station Historical Data
Daily Summary for August 13, 2017 Units:  Both    English   Metric
« Previous Day
Next Day »
Daily Weekly Monthly Yearly Custom
  High: Low: Average:
Temperature: 82.8 °F /  28.2 °C 66.2 °F /  19 °C 73.8 °F /  23.2 °C
Dew Point: 74.3 °F /  23.5 °C 65.7 °F /  18.7 °C 69.5 °F /  20.8 °C
Humidity: 99% 67% 87%
Wind Speed: 2.0mph /  3.2km/h - 0mph /  0km/h
Wind Gust: 3.0mph /  4.8km/h - -
Wind- - ESE
Pressure: 30.07 in /  1018.2 hPa 29.99 in /  1015.5 hPa -
Precipitation: 0.00 in /  0 mm    
Historical Graphs
 
 
Tabular Data for August 13, 2017
Time Temperature Dew Point Pressure Wind Wind Speed Wind Gust Humidity Rainfall Rate (Hourly)
00:02 68.7 °F /  20.4 °C 68.2 °F /  20.1 °C 30.02in /  1016.5hPa Calm     98% 0.00in /  0mm
00:07 68.5 °F /  20.3 °C 68.0 °F /  20 °C 30.03in /  1016.8hPa Calm     98% 0.00in /  0mm
00:12 68.4 °F /  20.2 °C 67.8 °F /  19.9 °C 30.02in /  1016.5hPa Calm     98% 0.00in /  0mm
00:17 68.4 °F /  20.2 °C 67.8 °F /  19.9 °C 30.02in /  1016.5hPa Calm     98% 0.00in /  0mm
00:22 68.4 °F /  20.2 °C 67.8 °F /  19.9 °C 30.03in /  1016.8hPa Calm     98% 0.00in /  0mm
00:27 68.2 °F /  20.1 °C 67.6 °F /  19.8 °C 30.03in /  1016.8hPa Calm     98% 0.00in /  0mm
00:32 68.2 °F /  20.1 °C 67.6 °F /  19.8 °C 30.03in /  1016.8hPa Calm     98% 0.00in /  0mm
00:37 68.0 °F /  20 °C 67.5 °F /  19.7 °C 30.03in /  1016.8hPa Calm     98% 0.00in /  0mm
00:42 68.0 °F /  20 °C 67.5 °F /  19.7 °C 30.03in /  1016.8hPa Calm     98% 0.00in /  0mm
00:47 68.0 °F /  20 °C 67.5 °F /  19.7 °C 30.03in /  1016.8hPa Calm     98% 0.00in /  0mm
00:52 68.0 °F /  20 °C 67.5 °F /  19.7 °C 30.03in /  1016.8hPa Calm     98% 0.00in /  0mm
00:57 68.2 °F /  20.1 °C 67.6 °F /  19.8 °C 30.03in /  1016.8hPa Calm     98% 0.00in /  0mm
01:02 68.2 °F /  20.1 °C 67.6 °F /  19.8 °C 30.03in /  1016.8hPa Calm     98% 0.00in /  0mm
01:07 68.2 °F /  20.1 °C 67.6 °F /  19.8 °C 30.03in /  1016.8hPa Calm     98% 0.00in /  0mm
01:12 68.2 °F /  20.1 °C 67.6 °F /  19.8 °C 30.02in /  1016.5hPa Calm     98% 0.00in /  0mm
01:13 68.2 °F /  20.1 °C 67.6 °F /  19.8 °C 30.02in /  1016.5hPa Calm     98% 0.00in /  0mm
01:18 68.0 °F /  20 °C 67.5 °F /  19.7 °C 30.03in /  1016.8hPa Calm     98% 0.00in /  0mm
01:23 67.8 °F /  19.9 °C 67.3 °F /  19.6 °C 30.03in /  1016.8hPa Calm     98% 0.00in /  0mm
01:28 67.8 °F /  19.9 °C 67.3 °F /  19.6 °C 30.03in /  1016.8hPa Calm     98% 0.00in /  0mm
01:33 67.6 °F /  19.8 °C 67.1 °F /  19.5 °C 30.03in /  1016.8hPa Calm     98% 0.00in /  0mm
01:38 67.8 °F /  19.9 °C 67.3 °F /  19.6 °C 30.03in /  1016.8hPa Calm     98% 0.00in /  0mm
01:43 67.6 °F /  19.8 °C 67.1 °F /  19.5 °C 30.03in /  1016.8hPa Calm     98% 0.00in /  0mm
01:48 67.5 °F /  19.7 °C 66.9 °F /  19.4 °C 30.03in /  1016.8hPa Calm     98% 0.00in /  0mm
01:53 67.3 °F /  19.6 °C 66.7 °F /  19.3 °C 30.03in /  1016.8hPa Calm     98% 0.00in /  0mm
01:58 67.3 °F /  19.6 °C 66.7 °F /  19.3 °C 30.03in /  1016.8hPa Calm     98% 0.00in /  0mm
02:03 67.1 °F /  19.5 °C 66.6 °F /  19.2 °C 30.03in /  1016.8hPa Calm     98% 0.00in /  0mm
02:09 67.3 °F /  19.6 °C 66.7 °F /  19.3 °C 30.03in /  1016.8hPa Calm     98% 0.00in /  0mm
02:14 67.3 °F /  19.6 °C 66.7 °F /  19.3 °C 30.03in /  1016.8hPa Calm     98% 0.00in /  0mm
02:19 67.1 °F /  19.5 °C 66.6 °F /  19.2 °C 30.03in /  1016.8hPa Calm     98% 0.00in /  0mm
02:24 66.9 °F /  19.4 °C 66.4 °F /  19.1 °C 30.03in /  1016.8hPa Calm     98% 0.00in /  0mm
02:29 66.9 °F /  19.4 °C 66.4 °F /  19.1 °C 30.03in /  1016.8hPa Calm     98% 0.00in /  0mm
02:34 66.9 °F /  19.4 °C 66.4 °F /  19.1 °C 30.03in /  1016.8hPa Calm     98% 0.00in /  0mm
02:39 66.9 °F /  19.4 °C 66.4 °F /  19.1 °C 30.03in /  1016.8hPa Calm     98% 0.00in /  0mm
02:44 66.9 °F /  19.4 °C 66.4 °F /  19.1 °C 30.03in /  1016.8hPa Calm     98% 0.00in /  0mm
02:49 66.9 °F /  19.4 °C 66.4 °F /  19.1 °C 30.03in /  1016.8hPa Calm     98% 0.00in /  0mm
02:50 66.9 °F /  19.4 °C 66.4 °F /  19.1 °C 30.03in /  1016.8hPa Calm     98% 0.00in /  0mm
02:55 66.9 °F /  19.4 °C 66.4 °F /  19.1 °C 30.02in /  1016.5hPa Calm     98% 0.00in /  0mm
03:00 67.1 °F /  19.5 °C 66.6 °F /  19.2 °C 30.02in /  1016.5hPa Calm     98% 0.00in /  0mm
03:05 66.9 °F /  19.4 °C 66.4 °F /  19.1 °C 30.02in /  1016.5hPa Calm     98% 0.00in /  0mm
03:10 66.9 °F /  19.4 °C 66.4 °F /  19.1 °C 30.02in /  1016.5hPa Calm     98% 0.00in /  0mm
03:15 66.9 °F /  19.4 °C 66.4 °F /  19.1 °C 30.02in /  1016.5hPa Calm     98% 0.00in /  0mm
03:20 66.9 °F /  19.4 °C 66.4 °F /  19.1 °C 30.02in /  1016.5hPa Calm     98% 0.00in /  0mm
03:25 66.9 °F /  19.4 °C 66.4 °F /  19.1 °C 30.02in /  1016.5hPa Calm     98% 0.00in /  0mm
03:30 66.9 °F /  19.4 °C 66.4 °F /  19.1 °C 30.02in /  1016.5hPa Calm     98% 0.00in /  0mm
03:36 67.1 °F /  19.5 °C 66.6 °F /  19.2 °C 30.02in /  1016.5hPa Calm     98% 0.00in /  0mm
03:41 67.1 °F /  19.5 °C 66.6 °F /  19.2 °C 30.02in /  1016.5hPa Calm     98% 0.00in /  0mm
03:46 67.3 °F /  19.6 °C 66.9 °F /  19.4 °C 30.02in /  1016.5hPa Calm     99% 0.00in /  0mm
03:51 67.1 °F /  19.5 °C 66.7 °F /  19.3 °C 30.02in /  1016.5hPa Calm     99% 0.00in /  0mm
03:56 67.3 °F /  19.6 °C 66.9 °F /  19.4 °C 30.02in /  1016.5hPa Calm     99% 0.00in /  0mm
03:59 67.1 °F /  19.5 °C 66.7 °F /  19.3 °C 30.02in /  1016.5hPa Calm     99% 0.00in /  0mm
04:04 67.1 °F /  19.5 °C 66.7 °F /  19.3 °C 30.02in /  1016.5hPa Calm     99% 0.00in /  0mm
04:10 67.1 °F /  19.5 °C 66.7 °F /  19.3 °C 30.02in /  1016.5hPa Calm     99% 0.00in /  0mm
04:15 67.1 °F /  19.5 °C 66.7 °F /  19.3 °C 30.03in /  1016.8hPa Calm     99% 0.00in /  0mm
04:20 66.9 °F /  19.4 °C 66.6 °F /  19.2 °C 30.03in /  1016.8hPa Calm     99% 0.00in /  0mm
04:25 66.9 °F /  19.4 °C 66.4 °F /  19.1 °C 30.02in /  1016.5hPa Calm     98% 0.00in /  0mm
04:30 66.9 °F /  19.4 °C 66.6 °F /  19.2 °C 30.02in /  1016.5hPa Calm     99% 0.00in /  0mm
04:35 66.9 °F /  19.4 °C 66.6 °F /  19.2 °C 30.02in /  1016.5hPa Calm     99% 0.00in /  0mm
04:40 66.9 °F /  19.4 °C 66.6 °F /  19.2 °C 30.02in /  1016.5hPa Calm     99% 0.00in /  0mm
04:45 66.9 °F /  19.4 °C 66.6 °F /  19.2 °C 30.02in /  1016.5hPa Calm     99% 0.00in /  0mm
04:50 67.1 °F /  19.5 °C 66.7 °F /  19.3 °C 30.02in /  1016.5hPa Calm     99% 0.00in /  0mm
04:55 66.9 °F /  19.4 °C 66.6 °F /  19.2 °C 30.02in /  1016.5hPa Calm     99% 0.00in /  0mm
05:00 66.9 °F /  19.4 °C 66.6 °F /  19.2 °C 30.01in /  1016.1hPa Calm     99% 0.00in /  0mm
05:05 66.9 °F /  19.4 °C 66.6 °F /  19.2 °C 30.01in /  1016.1hPa Calm     99% 0.00in /  0mm
05:10 66.9 °F /  19.4 °C 66.6 °F /  19.2 °C 30.01in /  1016.1hPa Calm     99% 0.00in /  0mm
05:15 66.9 °F /  19.4 °C 66.6 °F /  19.2 °C 30.01in /  1016.1hPa Calm     99% 0.00in /  0mm
05:20 66.9 °F /  19.4 °C 66.6 °F /  19.2 °C 30.01in /  1016.1hPa Calm     99% 0.00in /  0mm
05:25 66.9 °F /  19.4 °C 66.6 °F /  19.2 °C 30.02in /  1016.5hPa Calm     99% 0.00in /  0mm
05:30 66.9 °F /  19.4 °C 66.6 °F /  19.2 °C 30.01in /  1016.1hPa Calm     99% 0.00in /  0mm
05:35 66.9 °F /  19.4 °C 66.6 °F /  19.2 °C 30.01in /  1016.1hPa Calm     99% 0.00in /  0mm
05:40 66.9 °F /  19.4 °C 66.6 °F /  19.2 °C 30.01in /  1016.1hPa Calm     99% 0.00in /  0mm
05:45 66.9 °F /  19.4 °C 66.6 °F /  19.2 °C 30.01in /  1016.1hPa Calm     99% 0.00in /  0mm
05:50 66.9 °F /  19.4 °C 66.6 °F /  19.2 °C 30.02in /  1016.5hPa Calm     99% 0.00in /  0mm
05:55 66.9 °F /  19.4 °C 66.6 °F /  19.2 °C 30.02in /  1016.5hPa Calm     99% 0.00in /  0mm
06:00 66.9 °F /  19.4 °C 66.6 °F /  19.2 °C 30.02in /  1016.5hPa Calm     99% 0.00in /  0mm
06:05 66.9 °F /  19.4 °C 66.6 °F /  19.2 °C 30.02in /  1016.5hPa Calm     99% 0.00in /  0mm
06:10 66.9 °F /  19.4 °C 66.6 °F /  19.2 °C 30.02in /  1016.5hPa Calm     99% 0.00in /  0mm
06:16 66.9 °F /  19.4 °C 66.6 °F /  19.2 °C 30.02in /  1016.5hPa Calm     99% 0.00in /  0mm
06:21 66.9 °F /  19.4 °C 66.6 °F /  19.2 °C 30.02in /  1016.5hPa Calm     99% 0.00in /  0mm
06:26 66.7 °F /  19.3 °C 66.4 °F /  19.1 °C 30.03in /  1016.8hPa Calm     99% 0.00in /  0mm
06:31 66.7 °F /  19.3 °C 66.4 °F /  19.1 °C 30.03in /  1016.8hPa Calm     99% 0.00in /  0mm
06:36 66.7 °F /  19.3 °C 66.4 °F /  19.1 °C 30.03in /  1016.8hPa Calm     99% 0.00in /  0mm
06:41 66.7 °F /  19.3 °C 66.4 °F /  19.1 °C 30.03in /  1016.8hPa Calm     99% 0.00in /  0mm
06:46 66.7 °F /  19.3 °C 66.4 °F /  19.1 °C 30.03in /  1016.8hPa Calm     99% 0.00in /  0mm
06:51 66.7 °F /  19.3 °C 66.4 °F /  19.1 °C 30.03in /  1016.8hPa Calm     99% 0.00in /  0mm
06:56 66.7 °F /  19.3 °C 66.4 °F /  19.1 °C 30.03in /  1016.8hPa Calm     99% 0.00in /  0mm
07:01 66.7 °F /  19.3 °C 66.4 °F /  19.1 °C 30.03in /  1016.8hPa Calm     99% 0.00in /  0mm
07:06 66.7 °F /  19.3 °C 66.4 °F /  19.1 °C 30.04in /  1017.2hPa Calm     99% 0.00in /  0mm
07:11 66.6 °F /  19.2 °C 66.2 °F /  19 °C 30.04in /  1017.2hPa Calm     99% 0.00in /  0mm
07:16 66.6 °F /  19.2 °C 66.2 °F /  19 °C 30.04in /  1017.2hPa Calm     99% 0.00in /  0mm
07:21 66.4 °F /  19.1 °C 66.0 °F /  18.9 °C 30.04in /  1017.2hPa Calm     99% 0.00in /  0mm
07:26 66.4 °F /  19.1 °C 66.0 °F /  18.9 °C 30.04in /  1017.2hPa Calm     99% 0.00in /  0mm
07:31 66.4 °F /  19.1 °C 66.0 °F /  18.9 °C 30.04in /  1017.2hPa Calm     99% 0.00in /  0mm
07:33 66.4 °F /  19.1 °C 66.0 °F /  18.9 °C 30.04in /  1017.2hPa Calm     99% 0.00in /  0mm
07:38 66.4 °F /  19.1 °C 65.8 °F /  18.8 °C 30.05in /  1017.5hPa Calm     98% 0.00in /  0mm
07:43 66.2 °F /  19 °C 65.7 °F /  18.7 °C 30.05in /  1017.5hPa Calm     98% 0.00in /  0mm
07:48 66.4 °F /  19.1 °C 65.8 °F /  18.8 °C 30.05in /  1017.5hPa Calm     98% 0.00in /  0mm
07:49 66.4 °F /  19.1 °C 65.8 °F /  18.8 °C 30.05in /  1017.5hPa Calm     98% 0.00in /  0mm
07:54 66.4 °F /  19.1 °C 65.8 °F /  18.8 °C 30.05in /  1017.5hPa Calm     98% 0.00in /  0mm
07:59 66.4 °F /  19.1 °C 65.8 °F /  18.8 °C 30.05in /  1017.5hPa Calm     98% 0.00in /  0mm
08:04 66.4 °F /  19.1 °C 65.8 °F /  18.8 °C 30.05in /  1017.5hPa Calm     98% 0.00in /  0mm
08:09 66.6 °F /  19.2 °C 65.7 °F /  18.7 °C 30.05in /  1017.5hPa Calm     97% 0.00in /  0mm
08:14 66.9 °F /  19.4 °C 66.0 °F /  18.9 °C 30.05in /  1017.5hPa Calm     97% 0.00in /  0mm
08:16 66.9 °F /  19.4 °C 66.0 °F /  18.9 °C 30.05in /  1017.5hPa Calm     97% 0.00in /  0mm
08:21 67.1 °F /  19.5 °C 66.2 °F /  19 °C 30.06in /  1017.8hPa Calm     97% 0.00in /  0mm
08:26 67.3 °F /  19.6 °C 66.0 °F /  18.9 °C 30.06in /  1017.8hPa Calm     96% 0.00in /  0mm
08:31 67.5 °F /  19.7 °C 66.0 °F /  18.9 °C 30.06in /  1017.8hPa Calm     95% 0.00in /  0mm
08:36 67.6 °F /  19.8 °C 66.2 °F /  19 °C 30.06in /  1017.8hPa Calm     95% 0.00in /  0mm
08:41 67.6 °F /  19.8 °C 66.2 °F /  19 °C 30.06in /  1017.8hPa Calm     95% 0.00in /  0mm
08:46 67.8 °F /  19.9 °C 66.4 °F /  19.1 °C 30.06in /  1017.8hPa Calm     95% 0.00in /  0mm
08:51 68.0 °F /  20 °C 66.2 °F /  19 °C 30.06in /  1017.8hPa Calm     94% 0.00in /  0mm
08:56 68.2 °F /  20.1 °C 66.4 °F /  19.1 °C 30.06in /  1017.8hPa Calm     94% 0.00in /  0mm
09:01 68.5 °F /  20.3 °C 67.1 °F /  19.5 °C 30.06in /  1017.8hPa Calm     95% 0.00in /  0mm
09:06 68.9 °F /  20.5 °C 66.7 °F /  19.3 °C 30.06in /  1017.8hPa Calm     93% 0.00in /  0mm
09:11 69.3 °F /  20.7 °C 67.1 °F /  19.5 °C 30.06in /  1017.8hPa Calm     93% 0.00in /  0mm
09:16 69.8 °F /  21 °C 67.6 °F /  19.8 °C 30.06in /  1017.8hPa Calm     93% 0.00in /  0mm
09:21 70.2 °F /  21.2 °C 67.6 °F /  19.8 °C 30.06in /  1017.8hPa Calm     92% 0.00in /  0mm
09:26 70.5 °F /  21.4 °C 67.8 °F /  19.9 °C 30.06in /  1017.8hPa Calm     91% 0.00in /  0mm
09:31 71.4 °F /  21.9 °C 68.7 °F /  20.4 °C 30.06in /  1017.8hPa Calm     91% 0.00in /  0mm
09:36 72.1 °F /  22.3 °C 68.7 °F /  20.4 °C 30.06in /  1017.8hPa Calm     89% 0.00in /  0mm
09:41 72.7 °F /  22.6 °C 68.5 °F /  20.3 °C 30.06in /  1017.8hPa Calm     87% 0.00in /  0mm
09:46 72.7 °F /  22.6 °C 68.5 °F /  20.3 °C 30.07in /  1018.2hPa Calm     87% 0.00in /  0mm
09:51 72.7 °F /  22.6 °C 68.2 °F /  20.1 °C 30.07in /  1018.2hPa Calm     86% 0.00in /  0mm
09:56 72.3 °F /  22.4 °C 68.2 °F /  20.1 °C 30.07in /  1018.2hPa Calm     87% 0.00in /  0mm
10:01 72.1 °F /  22.3 °C 68.4 °F /  20.2 °C 30.07in /  1018.2hPa Calm     88% 0.00in /  0mm
10:06 72.9 °F /  22.7 °C 69.1 °F /  20.6 °C 30.07in /  1018.2hPa Calm     88% 0.00in /  0mm
10:07 72.9 °F /  22.7 °C 69.1 °F /  20.6 °C 30.07in /  1018.2hPa Calm     88% 0.00in /  0mm
10:12 73.6 °F /  23.1 °C 69.4 °F /  20.8 °C 30.07in /  1018.2hPa Calm     87% 0.00in /  0mm
10:17 74.3 °F /  23.5 °C 69.4 °F /  20.8 °C 30.07in /  1018.2hPa Calm     85% 0.00in /  0mm
10:22 74.8 °F /  23.8 °C 68.9 °F /  20.5 °C 30.07in /  1018.2hPa Calm     82% 0.00in /  0mm
10:27 75.6 °F /  24.2 °C 69.6 °F /  20.9 °C 30.07in /  1018.2hPa Calm     82% 0.00in /  0mm
10:32 76.3 °F /  24.6 °C 70.3 °F /  21.3 °C 30.07in /  1018.2hPa Calm     82% 0.00in /  0mm
10:37 76.5 °F /  24.7 °C 69.8 °F /  21 °C 30.07in /  1018.2hPa Calm   2.0mph /  3.2km/h 80% 0.00in /  0mm
10:42 76.6 °F /  24.8 °C 71.1 °F /  21.7 °C 30.07in /  1018.2hPa Calm     83% 0.00in /  0mm
10:47 76.8 °F /  24.9 °C 70.5 °F /  21.4 °C 30.07in /  1018.2hPa Calm   1.0mph /  1.6km/h 81% 0.00in /  0mm
10:52 77.5 °F /  25.3 °C 71.2 °F /  21.8 °C 30.06in /  1017.8hPa Calm     81% 0.00in /  0mm
10:57 78.3 °F /  25.7 °C 70.9 °F /  21.6 °C 30.06in /  1017.8hPa Calm   1.0mph /  1.6km/h 78% 0.00in /  0mm
11:02 78.6 °F /  25.9 °C 71.6 °F /  22 °C 30.06in /  1017.8hPa Calm   1.0mph /  1.6km/h 79% 0.00in /  0mm
11:07 78.8 °F /  26 °C 71.4 °F /  21.9 °C 30.06in /  1017.8hPa Calm   1.0mph /  1.6km/h 78% 0.00in /  0mm
11:12 78.6 °F /  25.9 °C 71.2 °F /  21.8 °C 30.06in /  1017.8hPa Calm   1.0mph /  1.6km/h 78% 0.00in /  0mm
11:17 79.0 °F /  26.1 °C 71.6 °F /  22 °C 30.06in /  1017.8hPa Calm     78% 0.00in /  0mm
11:22 79.0 °F /  26.1 °C 70.0 °F /  21.1 °C 30.06in /  1017.8hPa Calm   2.0mph /  3.2km/h 74% 0.00in /  0mm
11:27 79.3 °F /  26.3 °C 72.3 °F /  22.4 °C 30.05in /  1017.5hPa Calm     79% 0.00in /  0mm
11:32 80.2 °F /  26.8 °C 72.0 °F /  22.2 °C 30.05in /  1017.5hPa Calm   1.0mph /  1.6km/h 76% 0.00in /  0mm
11:37 80.8 °F /  27.1 °C 72.1 °F /  22.3 °C 30.05in /  1017.5hPa Calm     75% 0.00in /  0mm
11:42 81.9 °F /  27.7 °C 72.7 °F /  22.6 °C 30.05in /  1017.5hPa Calm     74% 0.00in /  0mm
11:47 82.4 °F /  28 °C 71.6 °F /  22 °C 30.05in /  1017.5hPa Calm     70% 0.00in /  0mm
11:52 82.4 °F /  28 °C 71.6 °F /  22 °C 30.05in /  1017.5hPa Calm   1.0mph /  1.6km/h 70% 0.00in /  0mm
11:57 82.6 °F /  28.1 °C 71.4 °F /  21.9 °C 30.05in /  1017.5hPa Calm   1.0mph /  1.6km/h 69% 0.00in /  0mm
12:03 82.8 °F /  28.2 °C 72.0 °F /  22.2 °C 30.05in /  1017.5hPa Calm   1.0mph /  1.6km/h 70% 0.00in /  0mm
12:07 82.0 °F /  27.8 °C 72.1 °F /  22.3 °C 30.05in /  1017.5hPa Calm     72% 0.00in /  0mm
12:12 81.7 °F /  27.6 °C 70.9 °F /  21.6 °C 30.04in /  1017.2hPa Calm   1.0mph /  1.6km/h 70% 0.00in /  0mm
12:17 81.9 °F /  27.7 °C 71.6 °F /  22 °C 30.05in /  1017.5hPa Calm   1.0mph /  1.6km/h 71% 0.00in /  0mm
12:23 82.6 °F /  28.1 °C 72.1 °F /  22.3 °C 30.05in /  1017.5hPa Calm     71% 0.00in /  0mm
12:28 82.8 °F /  28.2 °C 72.3 °F /  22.4 °C 30.05in /  1017.5hPa Calm     71% 0.00in /  0mm
12:33 82.6 °F /  28.1 °C 71.4 °F /  21.9 °C 30.05in /  1017.5hPa Calm   1.0mph /  1.6km/h 69% 0.00in /  0mm
12:38 82.0 °F /  27.8 °C 72.5 °F /  22.5 °C 30.05in /  1017.5hPa Calm   3.0mph /  4.8km/h 73% 0.00in /  0mm
12:43 82.2 °F /  27.9 °C 72.3 °F /  22.4 °C 30.05in /  1017.5hPa East 0.9mph /  1.4km/h 2.0mph /  3.2km/h 72% 0.00in /  0mm
12:48 82.0 °F /  27.8 °C 72.9 °F /  22.7 °C 30.04in /  1017.2hPa Calm     74% 0.00in /  0mm
12:53 82.2 °F /  27.9 °C 71.4 °F /  21.9 °C 30.04in /  1017.2hPa Calm   1.0mph /  1.6km/h 70% 0.00in /  0mm
12:58 82.0 °F /  27.8 °C 72.1 °F /  22.3 °C 30.04in /  1017.2hPa Calm     72% 0.00in /  0mm
13:03 81.7 °F /  27.6 °C 71.4 °F /  21.9 °C 30.04in /  1017.2hPa Calm     71% 0.00in /  0mm
13:08 81.1 °F /  27.3 °C 72.1 °F /  22.3 °C 30.04in /  1017.2hPa Calm   1.0mph /  1.6km/h 74% 0.00in /  0mm
13:13 81.0 °F /  27.2 °C 70.7 °F /  21.5 °C 30.04in /  1017.2hPa SSE 2.0mph /  3.2km/h 3.0mph /  4.8km/h 71% 0.00in /  0mm
13:18 81.1 °F /  27.3 °C 72.1 °F /  22.3 °C 30.04in /  1017.2hPa Calm     74% 0.00in /  0mm
13:23 81.3 °F /  27.4 °C 71.8 °F /  22.1 °C 30.04in /  1017.2hPa Calm   1.0mph /  1.6km/h 73% 0.00in /  0mm
13:28 81.7 °F /  27.6 °C 73.0 °F /  22.8 °C 30.04in /  1017.2hPa Calm     75% 0.00in /  0mm
13:29 81.7 °F /  27.6 °C 71.4 °F /  21.9 °C 30.04in /  1017.2hPa Calm   1.0mph /  1.6km/h 71% 0.00in /  0mm
13:34 81.9 °F /  27.7 °C 72.0 °F /  22.2 °C 30.04in /  1017.2hPa Calm     72% 0.00in /  0mm
13:39 82.0 °F /  27.8 °C 72.5 °F /  22.5 °C 30.04in /  1017.2hPa Calm   2.0mph /  3.2km/h 73% 0.00in /  0mm
13:40 82.0 °F /  27.8 °C 72.5 °F /  22.5 °C 30.04in /  1017.2hPa Calm   2.0mph /  3.2km/h 73% 0.00in /  0mm
13:45 82.2 °F /  27.9 °C 72.0 °F /  22.2 °C 30.03in /  1016.8hPa Calm     71% 0.00in /  0mm
13:50 82.6 °F /  28.1 °C 74.3 °F /  23.5 °C 30.03in /  1016.8hPa ESE 2.0mph /  3.2km/h 2.0mph /  3.2km/h 76% 0.00in /  0mm
13:55 82.2 °F /  27.9 °C 72.0 °F /  22.2 °C 30.03in /  1016.8hPa Calm   1.0mph /  1.6km/h 71% 0.00in /  0mm
14:00 82.2 °F /  27.9 °C 71.4 °F /  21.9 °C 30.03in /  1016.8hPa Calm     70% 0.00in /  0mm
14:05 82.6 °F /  28.1 °C 70.9 °F /  21.6 °C 30.03in /  1016.8hPa East 0.9mph /  1.4km/h 2.0mph /  3.2km/h 68% 0.00in /  0mm
14:10 82.6 °F /  28.1 °C 70.5 °F /  21.4 °C 30.02in /  1016.5hPa Calm     67% 0.00in /  0mm
14:15 82.6 °F /  28.1 °C 71.4 °F /  21.9 °C 30.02in /  1016.5hPa Calm   1.0mph /  1.6km/h 69% 0.00in /  0mm
14:20 82.4 °F /  28 °C 70.7 °F /  21.5 °C 30.02in /  1016.5hPa Calm   1.0mph /  1.6km/h 68% 0.00in /  0mm
14:25 82.0 °F /  27.8 °C 70.0 °F /  21.1 °C 30.02in /  1016.5hPa Calm     67% 0.00in /  0mm
14:30 81.9 °F /  27.7 °C 71.1 °F /  21.7 °C 30.02in /  1016.5hPa Calm   1.0mph /  1.6km/h 70% 0.00in /  0mm
14:35 81.9 °F /  27.7 °C 72.0 °F /  22.2 °C 30.01in /  1016.1hPa Calm   1.0mph /  1.6km/h 72% 0.00in /  0mm
14:37 81.9 °F /  27.7 °C 71.1 °F /  21.7 °C 30.01in /  1016.1hPa Calm     70% 0.00in /  0mm
14:42 82.0 °F /  27.8 °C 71.2 °F /  21.8 °C 30.01in /  1016.1hPa Calm     70% 0.00in /  0mm
14:47 82.0 °F /  27.8 °C 71.2 °F /  21.8 °C 30.01in /  1016.1hPa Calm     70% 0.00in /  0mm
14:52 82.2 °F /  27.9 °C 72.0 °F /  22.2 °C 30.01in /  1016.1hPa Calm     71% 0.00in /  0mm
14:57 82.4 °F /  28 °C 70.7 °F /  21.5 °C 30.01in /  1016.1hPa Calm     68% 0.00in /  0mm
15:02 82.2 °F /  27.9 °C 71.1 °F /  21.7 °C 30.01in /  1016.1hPa Calm     69% 0.00in /  0mm
15:07 81.9 °F /  27.7 °C 71.6 °F /  22 °C 30.01in /  1016.1hPa Calm     71% 0.00in /  0mm
15:12 81.9 °F /  27.7 °C 71.1 °F /  21.7 °C 30.01in /  1016.1hPa Calm     70% 0.00in /  0mm
15:17 81.7 °F /  27.6 °C 70.9 °F /  21.6 °C 30.00in /  1015.8hPa Calm     70% 0.00in /  0mm
15:22 81.7 °F /  27.6 °C 70.9 °F /  21.6 °C 30.00in /  1015.8hPa Calm     70% 0.00in /  0mm
15:27 81.7 °F /  27.6 °C 72.1 °F /  22.3 °C 30.00in /  1015.8hPa Calm     73% 0.00in /  0mm
15:32 81.5 °F /  27.5 °C 72.3 °F /  22.4 °C 30.00in /  1015.8hPa Calm     74% 0.00in /  0mm
15:37 81.7 °F /  27.6 °C 72.5 °F /  22.5 °C 30.00in /  1015.8hPa Calm     74% 0.00in /  0mm
15:42 81.7 °F /  27.6 °C 71.8 °F /  22.1 °C 30.00in /  1015.8hPa Calm   1.0mph /  1.6km/h 72% 0.00in /  0mm
15:44 81.7 °F /  27.6 °C 72.5 °F /  22.5 °C 30.00in /  1015.8hPa Calm   1.0mph /  1.6km/h 74% 0.00in /  0mm
15:49 81.3 °F /  27.4 °C 72.3 °F /  22.4 °C 30.00in /  1015.8hPa Calm     74% 0.00in /  0mm
15:54 81.0 °F /  27.2 °C 71.4 °F /  21.9 °C 30.00in /  1015.8hPa Calm   1.0mph /  1.6km/h 73% 0.00in /  0mm
15:59 80.6 °F /  27 °C 72.7 °F /  22.6 °C 30.00in /  1015.8hPa Calm     77% 0.00in /  0mm
16:04 80.2 °F /  26.8 °C 73.6 °F /  23.1 °C 29.99in /  1015.5hPa Calm     80% 0.00in /  0mm
16:09 79.9 °F /  26.6 °C 71.6 °F /  22 °C 29.99in /  1015.5hPa Calm     76% 0.00in /  0mm
16:14 79.9 °F /  26.6 °C 71.2 °F /  21.8 °C 30.00in /  1015.8hPa Calm     75% 0.00in /  0mm
16:19 80.1 °F /  26.7 °C 72.5 °F /  22.5 °C 30.00in /  1015.8hPa Calm     78% 0.00in /  0mm
16:24 80.2 °F /  26.8 °C 72.7 °F /  22.6 °C 30.00in /  1015.8hPa Calm     78% 0.00in /  0mm
16:29 80.4 °F /  26.9 °C 72.5 °F /  22.5 °C 29.99in /  1015.5hPa Calm     77% 0.00in /  0mm
16:34 80.8 °F /  27.1 °C 72.1 °F /  22.3 °C 29.99in /  1015.5hPa Calm     75% 0.00in /  0mm
16:39 80.8 °F /  27.1 °C 71.8 °F /  22.1 °C 30.00in /  1015.8hPa Calm     74% 0.00in /  0mm
16:44 80.8 °F /  27.1 °C 72.1 °F /  22.3 °C 29.99in /  1015.5hPa Calm     75% 0.00in /  0mm
16:49 80.6 °F /  27 °C 72.3 °F /  22.4 °C 29.99in /  1015.5hPa Calm     76% 0.00in /  0mm
16:54 80.6 °F /  27 °C 73.0 °F /  22.8 °C 29.99in /  1015.5hPa Calm     78% 0.00in /  0mm
16:59 80.6 °F /  27 °C 73.0 °F /  22.8 °C 29.99in /  1015.5hPa Calm     78% 0.00in /  0mm
17:04 80.8 °F /  27.1 °C 73.2 °F /  22.9 °C 29.99in /  1015.5hPa Calm     78% 0.00in /  0mm
17:09 80.8 °F /  27.1 °C 73.2 °F /  22.9 °C 29.99in /  1015.5hPa Calm     78% 0.00in /  0mm
17:14 80.8 °F /  27.1 °C 73.2 °F /  22.9 °C 29.99in /  1015.5hPa Calm     78% 0.00in /  0mm
17:19 80.8 °F /  27.1 °C 73.2 °F /  22.9 °C 29.99in /  1015.5hPa Calm     78% 0.00in /  0mm
17:24 80.4 °F /  26.9 °C 72.9 °F /  22.7 °C 29.99in /  1015.5hPa Calm     78% 0.00in /  0mm
17:29 80.4 °F /  26.9 °C 72.5 °F /  22.5 °C 29.99in /  1015.5hPa Calm     77% 0.00in /  0mm
17:34 80.8 °F /  27.1 °C 71.8 °F /  22.1 °C 29.99in /  1015.5hPa Calm     74% 0.00in /  0mm
17:39 81.0 °F /  27.2 °C 72.3 °F /  22.4 °C 29.99in /  1015.5hPa Calm     75% 0.00in /  0mm
17:44 81.3 °F /  27.4 °C 71.8 °F /  22.1 °C 29.99in /  1015.5hPa Calm   2.0mph /  3.2km/h 73% 0.00in /  0mm
17:50 81.7 °F /  27.6 °C 71.8 °F /  22.1 °C 30.00in /  1015.8hPa Calm     72% 0.00in /  0mm
17:55 81.7 °F /  27.6 °C 72.5 °F /  22.5 °C 29.99in /  1015.5hPa Calm     74% 0.00in /  0mm
17:58 81.7 °F /  27.6 °C 72.5 °F /  22.5 °C 29.99in /  1015.5hPa Calm     74% 0.00in /  0mm
18:03 81.7 °F /  27.6 °C 72.5 °F /  22.5 °C 29.99in /  1015.5hPa Calm     74% 0.00in /  0mm
18:08 81.3 °F /  27.4 °C 72.3 °F /  22.4 °C 29.99in /  1015.5hPa Calm     74% 0.00in /  0mm
18:13 81.1 °F /  27.3 °C 72.1 °F /  22.3 °C 29.99in /  1015.5hPa Calm     74% 0.00in /  0mm
18:14 81.1 °F /  27.3 °C 72.1 °F /  22.3 °C 29.99in /  1015.5hPa Calm     74% 0.00in /  0mm
18:19 81.0 °F /  27.2 °C 72.3 °F /  22.4 °C 29.99in /  1015.5hPa Calm     75% 0.00in /  0mm
18:24 80.6 °F /  27 °C 72.0 °F /  22.2 °C 29.99in /  1015.5hPa Calm   1.0mph /  1.6km/h 75% 0.00in /  0mm
18:29 80.1 °F /  26.7 °C 71.8 °F /  22.1 °C 29.99in /  1015.5hPa Calm     76% 0.00in /  0mm
18:34 79.7 °F /  26.5 °C 71.1 °F /  21.7 °C 29.99in /  1015.5hPa Calm     75% 0.00in /  0mm
18:39 79.5 °F /  26.4 °C 71.2 °F /  21.8 °C 29.99in /  1015.5hPa Calm     76% 0.00in /  0mm
18:44 79.2 °F /  26.2 °C 71.2 °F /  21.8 °C 29.99in /  1015.5hPa Calm     77% 0.00in /  0mm
18:49 79.0 °F /  26.1 °C 71.6 °F /  22 °C 29.99in /  1015.5hPa Calm     78% 0.00in /  0mm
18:54 78.6 °F /  25.9 °C 72.0 °F /  22.2 °C 29.99in /  1015.5hPa Calm     80% 0.00in /  0mm
18:59 78.4 °F /  25.8 °C 71.4 °F /  21.9 °C 29.99in /  1015.5hPa Calm     79% 0.00in /  0mm
19:04 78.4 °F /  25.8 °C 72.1 °F /  22.3 °C 29.99in /  1015.5hPa Calm     81% 0.00in /  0mm
19:09 78.3 °F /  25.7 °C 72.0 °F /  22.2 °C 29.99in /  1015.5hPa Calm     81% 0.00in /  0mm
19:14 78.1 °F /  25.6 °C 72.1 °F /  22.3 °C 29.99in /  1015.5hPa Calm     82% 0.00in /  0mm
19:20 77.7 °F /  25.4 °C 71.8 °F /  22.1 °C 29.99in /  1015.5hPa Calm     82% 0.00in /  0mm
19:25 77.5 °F /  25.3 °C 71.6 °F /  22 °C 29.99in /  1015.5hPa Calm     82% 0.00in /  0mm
19:30 77.4 °F /  25.2 °C 71.8 °F /  22.1 °C 29.99in /  1015.5hPa Calm     83% 0.00in /  0mm
19:35 77.4 °F /  25.2 °C 72.1 °F /  22.3 °C 29.99in /  1015.5hPa Calm     84% 0.00in /  0mm
19:40 77.2 °F /  25.1 °C 72.0 °F /  22.2 °C 29.99in /  1015.5hPa Calm     84% 0.00in /  0mm
19:45 77.0 °F /  25 °C 71.8 °F /  22.1 °C 29.99in /  1015.5hPa Calm     84% 0.00in /  0mm
19:50 77.0 °F /  25 °C 71.8 °F /  22.1 °C 29.99in /  1015.5hPa Calm     84% 0.00in /  0mm
19:55 76.8 °F /  24.9 °C 71.6 °F /  22 °C 30.00in /  1015.8hPa Calm     84% 0.00in /  0mm
20:00 76.6 °F /  24.8 °C 71.4 °F /  21.9 °C 30.00in /  1015.8hPa Calm     84% 0.00in /  0mm
20:02 76.6 °F /  24.8 °C 71.8 °F /  22.1 °C 30.00in /  1015.8hPa Calm     85% 0.00in /  0mm
20:07 76.5 °F /  24.7 °C 71.6 °F /  22 °C 30.00in /  1015.8hPa Calm     85% 0.00in /  0mm
20:12 76.3 °F /  24.6 °C 71.4 °F /  21.9 °C 30.00in /  1015.8hPa Calm     85% 0.00in /  0mm
20:17 76.3 °F /  24.6 °C 71.8 °F /  22.1 °C 30.00in /  1015.8hPa Calm     86% 0.00in /  0mm
20:22 75.9 °F /  24.4 °C 71.4 °F /  21.9 °C 30.00in /  1015.8hPa Calm     86% 0.00in /  0mm
20:27 75.7 °F /  24.3 °C 71.6 °F /  22 °C 30.00in /  1015.8hPa Calm     87% 0.00in /  0mm
20:32 75.6 °F /  24.2 °C 71.4 °F /  21.9 °C 30.01in /  1016.1hPa Calm     87% 0.00in /  0mm
20:37 75.4 °F /  24.1 °C 71.6 °F /  22 °C 30.01in /  1016.1hPa Calm     88% 0.00in /  0mm
20:42 75.0 °F /  23.9 °C 71.2 °F /  21.8 °C 30.01in /  1016.1hPa Calm     88% 0.00in /  0mm
20:47 75.0 °F /  23.9 °C 71.2 °F /  21.8 °C 30.01in /  1016.1hPa Calm     88% 0.00in /  0mm
20:52 74.8 °F /  23.8 °C 71.4 °F /  21.9 °C 30.02in /  1016.5hPa Calm     89% 0.00in /  0mm
21:02 74.5 °F /  23.6 °C 71.4 °F /  21.9 °C 30.02in /  1016.5hPa Calm     90% 0.00in /  0mm
21:07 74.3 °F /  23.5 °C 71.2 °F /  21.8 °C 30.03in /  1016.8hPa Calm     90% 0.00in /  0mm
21:13 74.1 °F /  23.4 °C 71.1 °F /  21.7 °C 30.03in /  1016.8hPa Calm     90% 0.00in /  0mm
21:18 74.1 °F /  23.4 °C 71.1 °F /  21.7 °C 30.03in /  1016.8hPa Calm     90% 0.00in /  0mm
21:23 74.1 °F /  23.4 °C 71.2 °F /  21.8 °C 30.03in /  1016.8hPa Calm     91% 0.00in /  0mm
21:28 73.9 °F /  23.3 °C 70.9 °F /  21.6 °C 30.03in /  1016.8hPa Calm     90% 0.00in /  0mm
21:33 73.9 °F /  23.3 °C 71.1 °F /  21.7 °C 30.03in /  1016.8hPa Calm     91% 0.00in /  0mm
21:38 73.8 °F /  23.2 °C 71.2 °F /  21.8 °C 30.03in /  1016.8hPa Calm     92% 0.00in /  0mm
21:43 73.8 °F /  23.2 °C 71.2 °F /  21.8 °C 30.04in /  1017.2hPa Calm     92% 0.00in /  0mm
21:48 73.6 °F /  23.1 °C 71.1 °F /  21.7 °C 30.04in /  1017.2hPa Calm     92% 0.00in /  0mm
21:53 73.4 °F /  23 °C 70.9 °F /  21.6 °C 30.04in /  1017.2hPa Calm     92% 0.00in /  0mm
21:58 73.2 °F /  22.9 °C 71.1 °F /  21.7 °C 30.04in /  1017.2hPa Calm     93% 0.00in /  0mm
22:03 73.0 °F /  22.8 °C 70.9 °F /  21.6 °C 30.04in /  1017.2hPa Calm     93% 0.00in /  0mm
22:08 73.0 °F /  22.8 °C 71.2 °F /  21.8 °C 30.05in /  1017.5hPa Calm     94% 0.00in /  0mm
22:13 72.9 °F /  22.7 °C 70.7 °F /  21.5 °C 30.05in /  1017.5hPa Calm     93% 0.00in /  0mm
22:18 72.7 °F /  22.6 °C 70.5 °F /  21.4 °C 30.05in /  1017.5hPa Calm     93% 0.00in /  0mm
22:23 72.7 °F /  22.6 °C 70.9 °F /  21.6 °C 30.04in /  1017.2hPa Calm     94% 0.00in /  0mm
22:29 72.7 °F /  22.6 °C 70.9 °F /  21.6 °C 30.04in /  1017.2hPa Calm     94% 0.00in /  0mm
22:34 72.5 °F /  22.5 °C 70.7 °F /  21.5 °C 30.05in /  1017.5hPa Calm     94% 0.00in /  0mm
22:39 72.3 °F /  22.4 °C 70.9 °F /  21.6 °C 30.05in /  1017.5hPa Calm     95% 0.00in /  0mm
22:44 72.1 °F /  22.3 °C 70.7 °F /  21.5 °C 30.05in /  1017.5hPa Calm     95% 0.00in /  0mm
22:49 72.0 °F /  22.2 °C 70.5 °F /  21.4 °C 30.05in /  1017.5hPa Calm     95% 0.00in /  0mm
22:54 71.8 °F /  22.1 °C 70.3 °F /  21.3 °C 30.05in /  1017.5hPa Calm     95% 0.00in /  0mm
22:59 71.8 °F /  22.1 °C 70.3 °F /  21.3 °C 30.05in /  1017.5hPa Calm     95% 0.00in /  0mm
23:04 71.6 °F /  22 °C 70.2 °F /  21.2 °C 30.05in /  1017.5hPa Calm     95% 0.00in /  0mm
23:09 71.6 °F /  22 °C 70.2 °F /  21.2 °C 30.05in /  1017.5hPa Calm     95% 0.00in /  0mm
23:14 71.6 °F /  22 °C 70.2 °F /  21.2 °C 30.05in /  1017.5hPa Calm     95% 0.00in /  0mm
23:19 71.6 °F /  22 °C 70.3 °F /  21.3 °C 30.05in /  1017.5hPa Calm     96% 0.00in /  0mm
23:24 71.6 °F /  22 °C 70.3 °F /  21.3 °C 30.05in /  1017.5hPa Calm     96% 0.00in /  0mm
23:29 71.6 °F /  22 °C 70.3 °F /  21.3 °C 30.05in /  1017.5hPa Calm     96% 0.00in /  0mm
23:34 71.4 °F /  21.9 °C 70.2 °F /  21.2 °C 30.05in /  1017.5hPa Calm     96% 0.00in /  0mm
23:39 71.4 °F /  21.9 °C 70.2 °F /  21.2 °C 30.05in /  1017.5hPa Calm     96% 0.00in /  0mm
23:44 71.2 °F /  21.8 °C 70.0 °F /  21.1 °C 30.05in /  1017.5hPa Calm     96% 0.00in /  0mm
23:49 71.2 °F /  21.8 °C 70.0 °F /  21.1 °C 30.05in /  1017.5hPa Calm     96% 0.00in /  0mm
23:54 71.2 °F /  21.8 °C 70.0 °F /  21.1 °C 30.05in /  1017.5hPa Calm     96% 0.00in /  0mm
23:59 71.2 °F /  21.8 °C 70.0 °F /  21.1 °C 30.05in /  1017.5hPa Calm     96% 0.00in /  0mm
WheeWeather.com
Compliments of Weather Underground - 3.75 mb